Hovedside
METAR-TAF:

METAR-TAF

Lufthavner :

Conakry, Guinea

Conakry internasjonale lufthavn

breddegrad: 09-34N, lengdegrad: 013-37W, høyde over havet: 26 m

Gjeldene værobservasjon

Denne rapporten ble laget for 35 minutter siden, klokken 21:00 UTC
Flau vind
Temperatur 27°C
Luftfuktighet 70%
Trykk 1011 hPa
Sikt: 4000 m
dis

METAR: GUCY 182100Z 00000KT 4000 HZ NSC 27/21 Q1011 NOSIG

Tid: 21:35 (21:35 UTC)

Varsel

Denne rapporten ble laget for 4 timer og 35 minutter siden, klokken 17:00 UTC
Varsel gyldig fra 18. klokken 18 UTC til 19. klokken 24 UTC
Vind 6 kt fra Nordvest
Sikt: 5000 m
dis
Blir
fra 18. klokken 20 UTC til 18. klokken 23 UTC
Sikt: 4000 m
dis
Midlertidig
fra 19. klokken 04 UTC til 19. klokken 09 UTC
Vind 2 kt fra skiftende retning
Sikt: 3000 m
Få skyer i en høyde av 1500 ft
dis

TAF: GUCY 181700Z 1818/1924 32006KT 5000 HZ NSC BECMG 1820/1823 4000 HZ TEMPO 1904/1909 VRB02KT 3000 BR FEW015

Værobservasjoner og værvarsel for over 4000 flyplasser (METAR- og TAF-rapporter).

Tilgjengelige stasjoner er representert av de røde og gule prikkene på kartet.

Hold musepekeren over prikken for å se navnet på stasjonen.

Klikk så for å se værobservasjoner og -varsler.

For å forandre kartet kan du klikke på den grønne knappen med svart kryss for å zoome inn, på den grønne knappen med strek for å zoome ut, eller på de grønne pilene for å se tilstøtende kart.


METAR-TAF: